Time;durP1;ratioP1;P1;durP2;ratioP2;P2;SDS_P1;SDS_P2;PMS_P1;PMS_P2;Temp;Humidity;BMP_temperature;BMP_pressure;BME280_temperature;BME280_humidity;BME280_pressure;Samples;Min_cycle;Max_cycle;Signal;HPM_P1;HPM_P2
2023/03/27 00:00:43;;;;;;;6.20;1.90;;;5.90;1.00;;;;;;4966498;28;20262;-84
2023/03/27 00:03:14;;;;;;;5.95;2.28;;;5.90;1.00;;;;;;4965385;28;20296;-83
2023/03/27 00:05:49;;;;;;;8.02;2.15;;;5.90;1.00;;;;;;4957525;28;20235;-83
2023/03/27 00:08:21;;;;;;;7.60;2.17;;;5.90;1.00;;;;;;4962357;28;20250;-82
2023/03/27 00:10:51;;;;;;;8.38;2.55;;;5.90;1.00;;;;;;4965402;28;20244;-82
2023/03/27 00:13:19;;;;;;;5.80;2.17;;;5.80;1.00;;;;;;4966842;28;20236;-82
2023/03/27 00:15:49;;;;;;;9.45;3.92;;;5.80;1.00;;;;;;4951495;28;20245;-84
2023/03/27 00:18:22;;;;;;;4.97;2.50;;;5.80;1.00;;;;;;4970093;28;20247;-81
2023/03/27 00:20:59;;;;;;;5.57;2.00;;;5.80;1.00;;;;;;4967389;28;20238;-82
2023/03/27 00:23:31;;;;;;;5.57;2.42;;;5.80;1.00;;;;;;4965371;28;20355;-82
2023/03/27 00:26:00;;;;;;;4.75;1.95;;;5.70;1.00;;;;;;4965166;28;20702;-83
2023/03/27 00:28:30;;;;;;;5.68;2.00;;;5.70;1.00;;;;;;4965081;28;20242;-82
2023/03/27 00:31:01;;;;;;;7.07;1.95;;;5.60;1.00;;;;;;4942868;28;20931;-85
2023/03/27 00:33:30;;;;;;;7.60;1.90;;;5.60;1.00;;;;;;4976852;28;20764;-81
2023/03/27 00:36:00;;;;;;;5.50;1.80;;;5.50;1.00;;;;;;4960186;28;20243;-83
2023/03/27 00:38:33;;;;;;;7.50;1.60;;;5.50;1.00;;;;;;4975764;28;21100;-84
2023/03/27 00:41:10;;;;;;;7.30;2.53;;;5.60;1.00;;;;;;4957812;28;21609;-81
2023/03/27 00:43:42;;;;;;;7.03;1.92;;;5.60;1.00;;;;;;4961837;28;20358;-83
2023/03/27 00:46:30;;;;;;;7.60;2.08;;;5.50;1.00;;;;;;4956392;28;20248;-81
2023/03/27 00:49:04;;;;;;;7.65;2.20;;;5.60;1.00;;;;;;4956133;28;21023;-81
2023/03/27 00:51:36;;;;;;;9.25;2.70;;;5.70;1.00;;;;;;4970214;28;20247;-84
2023/03/27 00:57:26;;;;;;;3.90;2.15;;;5.70;1.00;;;;;;4966997;28;20293;-82
2023/03/27 01:02:49;;;;;;;;;;;;;;;;;;;;;
2023/03/27 01:34:30;;;;;;;4.70;2.05;;;5.00;1.00;;;;;;5967897;23;20253;-80
2023/03/27 01:53:53;;;;;;;6.65;2.50;;;5.20;1.00;;;;;;5058651;23;20243;-80
2023/03/27 01:59:49;;;;;;;5.45;2.30;;;5.20;1.00;;;;;;4920408;28;20240;-82
2023/03/27 02:02:22;;;;;;;6.72;2.47;;;5.10;1.00;;;;;;4981889;28;20258;-82
2023/03/27 02:04:58;;;;;;;5.40;2.50;;;5.10;1.00;;;;;;4964781;28;20244;-82
2023/03/27 02:07:50;;;;;;;7.55;2.45;;;5.00;1.00;;;;;;4977891;28;20262;-85
2023/03/27 02:27:41;;;;;;;7.28;2.22;;;4.70;1.00;;;;;;4988803;28;20247;-82
2023/03/27 02:30:27;;;;;;;6.25;2.50;;;4.60;1.00;;;;;;4977976;28;20240;-82
2023/03/27 02:36:34;;;;;;;6.85;2.30;;;4.50;1.00;;;;;;4973531;28;20260;-82
2023/03/27 02:39:11;;;;;;;5.63;1.85;;;4.30;1.00;;;;;;4973683;28;20455;-82
2023/03/27 02:41:56;;;;;;;4.82;2.25;;;4.30;1.00;;;;;;4988934;28;20250;-82
2023/03/27 02:44:34;;;;;;;7.75;2.65;;;4.20;1.00;;;;;;4993690;28;20224;-81
2023/03/27 03:14:59;;;;;;;5.35;1.80;;;3.90;1.00;;;;;;5555444;23;20250;-83
2023/03/27 03:17:26;;;;;;;7.13;2.22;;;3.90;1.00;;;;;;4922151;28;20301;-83
2023/03/27 03:19:53;;;;;;;4.60;1.85;;;3.90;1.00;;;;;;4926512;28;20269;-83
2023/03/27 03:22:20;;;;;;;4.70;1.90;;;3.90;1.00;;;;;;4925375;29;20223;-84
2023/03/27 03:24:47;;;;;;;5.03;1.95;;;3.90;1.00;;;;;;4923518;29;20250;-82
2023/03/27 03:27:14;;;;;;;5.30;2.10;;;3.80;1.00;;;;;;4918667;29;20415;-84
2023/03/27 03:29:43;;;;;;;4.78;2.15;;;3.80;1.00;;;;;;4917327;28;20246;-83
2023/03/27 03:32:12;;;;;;;5.40;1.55;;;3.70;1.00;;;;;;4911931;28;20234;-83
2023/03/27 03:34:40;;;;;;;5.28;2.00;;;3.70;1.00;;;;;;4924835;28;20234;-83
2023/03/27 03:37:09;;;;;;;8.20;3.10;;;3.60;1.00;;;;;;4925387;28;20230;-85
2023/03/27 03:39:36;;;;;;;8.35;4.07;;;3.60;1.00;;;;;;4923013;28;20249;-83
2023/03/27 03:42:04;;;;;;;4.20;1.80;;;3.50;1.00;;;;;;4926213;28;20238;-83
2023/03/27 03:44:33;;;;;;;7.70;2.72;;;3.40;1.00;;;;;;4919302;29;20356;-82
2023/03/27 03:47:03;;;;;;;5.65;1.70;;;3.30;1.00;;;;;;4920900;29;20242;-84
2023/03/27 03:49:32;;;;;;;6.47;2.25;;;3.30;1.00;;;;;;4927731;28;20734;-84
2023/03/27 03:52:00;;;;;;;5.22;1.58;;;3.20;1.00;;;;;;4921875;29;20242;-82
2023/03/27 03:54:27;;;;;;;4.60;2.15;;;3.20;1.00;;;;;;4924165;29;20242;-84
2023/03/27 03:56:57;;;;;;;6.05;2.22;;;3.10;1.00;;;;;;4925394;29;20913;-83
2023/03/27 03:59:25;;;;;;;6.50;1.95;;;3.00;1.00;;;;;;4927263;29;20265;-83
2023/03/27 04:01:54;;;;;;;5.90;1.67;;;3.10;1.00;;;;;;4925200;29;20242;-83
2023/03/27 04:04:22;;;;;;;5.47;2.10;;;3.00;1.00;;;;;;4921020;28;20294;-84
2023/03/27 04:07:01;;;;;;;3.35;1.23;;;3.00;1.00;;;;;;4928424;29;21076;-84
2023/03/27 04:09:30;;;;;;;6.97;2.00;;;3.00;1.00;;;;;;4922125;29;20245;-82
2023/03/27 04:11:59;;;;;;;4.25;1.95;;;3.00;1.00;;;;;;4921307;28;20231;-83
2023/03/27 04:14:29;;;;;;;5.82;1.95;;;3.00;1.00;;;;;;4925792;28;20365;-83
2023/03/27 04:16:58;;;;;;;4.15;1.98;;;3.00;1.00;;;;;;4926229;29;20253;-83
2023/03/27 04:19:24;;;;;;;8.52;2.47;;;3.00;1.00;;;;;;4923718;29;20246;-83
2023/03/27 04:22:00;;;;;;;5.28;1.88;;;3.00;1.00;;;;;;4922593;28;20286;-82
2023/03/27 04:24:29;;;;;;;9.00;2.88;;;2.90;1.00;;;;;;4926597;28;20249;-86
2023/03/27 04:27:29;;;;;;;6.78;2.70;;;2.90;1.00;;;;;;4925966;28;20242;-85
2023/03/27 04:29:57;;;;;;;6.13;2.35;;;2.90;1.00;;;;;;4938707;28;20336;-85
2023/03/27 04:32:25;;;;;;;4.57;1.88;;;2.90;1.00;;;;;;4933418;28;20254;-86
2023/03/27 04:34:53;;;;;;;5.88;2.58;;;2.80;1.00;;;;;;4926890;28;20738;-86
2023/03/27 04:37:39;;;;;;;4.40;1.90;;;2.80;1.00;;;;;;4930291;28;20248;-87
2023/03/27 04:40:10;;;;;;;7.35;2.60;;;2.80;1.00;;;;;;4919236;29;21009;-87
2023/03/27 04:42:43;;;;;;;4.50;1.55;;;2.80;1.00;;;;;;4921978;28;20256;-85
2023/03/27 04:45:24;;;;;;;4.50;1.90;;;2.80;1.00;;;;;;4932752;28;20675;-85
2023/03/27 04:47:53;;;;;;;6.40;3.30;;;2.80;1.00;;;;;;4923467;29;20314;-83
2023/03/27 04:50:21;;;;;;;5.32;1.90;;;2.80;1.00;;;;;;4930577;28;20238;-85
2023/03/27 04:53:16;;;;;;;4.60;2.08;;;2.80;1.00;;;;;;4928246;28;20268;-82
2023/03/27 04:55:44;;;;;;;4.40;1.77;;;2.80;1.00;;;;;;4923472;28;20836;-86
2023/03/27 04:58:14;;;;;;;6.35;1.70;;;2.80;1.00;;;;;;4920934;28;20310;-83
2023/03/27 05:00:49;;;;;;;5.35;1.90;;;2.80;1.00;;;;;;4922410;28;20253;-82
2023/03/27 05:06:10;;;;;;;3.88;1.75;;;2.80;1.00;;;;;;4924134;28;20246;-84
2023/03/27 05:08:39;;;;;;;4.30;1.73;;;2.80;1.00;;;;;;4917978;29;20270;-85
2023/03/27 05:11:06;;;;;;;4.70;2.00;;;2.90;1.00;;;;;;4923753;28;21007;-84
2023/03/27 05:13:40;;;;;;;4.05;1.58;;;2.90;1.00;;;;;;4920086;28;20241;-85
2023/03/27 05:16:09;;;;;;;9.95;4.50;;;2.90;1.00;;;;;;4924232;28;20227;-84
2023/03/27 05:18:37;;;;;;;4.88;1.75;;;3.00;1.00;;;;;;4930028;29;20226;-83
2023/03/27 05:21:05;;;;;;;6.78;2.65;;;3.00;1.00;;;;;;4935601;28;20246;-84
2023/03/27 05:23:33;;;;;;;6.20;2.08;;;3.10;1.00;;;;;;4921025;29;20376;-87
2023/03/27 05:26:04;;;;;;;6.75;2.90;;;3.10;1.00;;;;;;4923468;28;20226;-87
2023/03/27 05:28:39;;;;;;;6.05;2.55;;;3.10;1.00;;;;;;4921510;29;20245;-86
2023/03/27 05:31:09;;;;;;;5.40;1.95;;;3.10;1.00;;;;;;4925007;28;20391;-85
2023/03/27 05:33:37;;;;;;;5.15;2.80;;;3.00;1.00;;;;;;4923532;28;20242;-84
2023/03/27 05:36:05;;;;;;;5.50;2.75;;;3.00;1.00;;;;;;4918933;29;20242;-86
2023/03/27 05:38:32;;;;;;;7.05;3.13;;;3.00;1.00;;;;;;4920538;29;20238;-84
2023/03/27 05:41:02;;;;;;;6.75;2.72;;;2.90;1.00;;;;;;4914762;29;21082;-83
2023/03/27 05:43:30;;;;;;;5.15;2.47;;;2.90;1.00;;;;;;4913246;29;20769;-84
2023/03/27 05:45:57;;;;;;;4.85;2.42;;;3.00;1.00;;;;;;4907472;29;20333;-85
2023/03/27 05:48:28;;;;;;;8.35;3.10;;;2.90;1.00;;;;;;4925803;29;20293;-83
2023/03/27 05:50:55;;;;;;;4.43;2.20;;;2.90;1.00;;;;;;4926339;29;20248;-85
2023/03/27 05:53:23;;;;;;;6.30;3.80;;;2.90;1.00;;;;;;4924215;28;20297;-84
2023/03/27 05:55:50;;;;;;;6.95;2.58;;;3.00;1.00;;;;;;4918596;28;21007;-84
2023/03/27 05:58:21;;;;;;;12.88;5.38;;;3.00;1.00;;;;;;4927711;28;20314;-84
2023/03/27 06:00:51;;;;;;;6.65;3.00;;;3.00;1.00;;;;;;4920701;28;20238;-85
2023/03/27 06:06:12;;;;;;;6.93;3.22;;;3.00;1.00;;;;;;4909061;28;20235;-86
2023/03/27 06:08:42;;;;;;;8.20;3.85;;;2.90;1.00;;;;;;4932975;28;20240;-88
2023/03/27 06:11:11;;;;;;;12.95;4.18;;;2.90;1.00;;;;;;4931014;28;20292;-87
2023/03/27 06:14:00;;;;;;;7.38;4.20;;;3.00;1.00;;;;;;4929251;29;20234;-87
2023/03/27 06:19:15;;;;;;;8.48;4.22;;;3.20;1.00;;;;;;4933584;28;20261;-84
2023/03/27 06:21:45;;;;;;;6.03;3.05;;;3.40;1.00;;;;;;4936013;28;20721;-84
2023/03/27 06:24:14;;;;;;;5.60;3.40;;;3.50;1.00;;;;;;4928593;28;20242;-83
2023/03/27 06:26:46;;;;;;;8.90;3.85;;;3.60;1.00;;;;;;4929907;28;21036;-86
2023/03/27 06:29:20;;;;;;;6.95;3.63;;;3.70;1.00;;;;;;4924868;28;20245;-85
2023/03/27 06:31:49;;;;;;;8.35;3.30;;;3.80;1.00;;;;;;4922027;29;20618;-85
2023/03/27 06:36:52;;;;;;;7.72;2.28;;;4.00;1.00;;;;;;4934514;23;20276;-87
2023/03/27 06:39:22;;;;;;;8.88;2.25;;;4.00;1.00;;;;;;4907161;28;20337;-85
2023/03/27 06:41:49;;;;;;;7.97;2.20;;;3.90;1.00;;;;;;4903329;29;20735;-82
2023/03/27 06:44:18;;;;;;;5.78;2.00;;;4.00;1.00;;;;;;4901771;29;20234;-84
2023/03/27 06:46:46;;;;;;;4.68;2.20;;;3.90;1.00;;;;;;4907351;29;20286;-85
2023/03/27 06:49:14;;;;;;;6.50;1.90;;;4.00;1.00;;;;;;4908702;29;20239;-83
2023/03/27 06:51:45;;;;;;;5.55;1.92;;;4.00;1.00;;;;;;4911740;28;20250;-85
2023/03/27 06:54:13;;;;;;;4.75;2.40;;;4.10;1.00;;;;;;4903943;28;20230;-86
2023/03/27 06:56:45;;;;;;;12.23;7.88;;;4.20;1.00;;;;;;4910748;29;20329;-85
2023/03/27 07:02:00;;;;;;;7.63;2.47;;;5.00;1.00;;;;;;3107630;26;20723;-85
2023/03/27 07:04:30;;;;;;;6.63;2.42;;;5.20;1.00;;;;;;4919181;29;20241;-84
2023/03/27 07:07:00;;;;;;;5.57;2.72;;;5.20;1.00;;;;;;4919129;28;20238;-83
2023/03/27 07:09:34;;;;;;;7.32;3.95;;;5.30;1.00;;;;;;4924229;28;20297;-83
2023/03/27 07:12:03;;;;;;;8.48;3.25;;;5.40;1.00;;;;;;4927584;28;20241;-82
2023/03/27 07:14:31;;;;;;;6.38;2.78;;;5.40;1.00;;;;;;4929632;28;20248;-84
2023/03/27 07:17:02;;;;;;;4.38;1.88;;;5.50;1.00;;;;;;4924228;28;20238;-84
2023/03/27 07:19:33;;;;;;;7.20;2.33;;;5.60;1.00;;;;;;4922378;29;20249;-86
2023/03/27 07:22:07;;;;;;;4.60;2.00;;;5.60;1.00;;;;;;4925094;28;20278;-86
2023/03/27 07:24:39;;;;;;;5.50;3.00;;;5.50;1.00;;;;;;4929946;28;20264;-86
2023/03/27 07:27:09;;;;;;;4.40;2.30;;;5.50;1.00;;;;;;4926989;28;20933;-86
2023/03/27 07:29:38;;;;;;;5.38;2.33;;;5.50;1.00;;;;;;4930192;29;20242;-86
2023/03/27 07:32:09;;;;;;;5.25;2.20;;;5.60;1.00;;;;;;4925192;29;20301;-87
2023/03/27 07:34:37;;;;;;;4.93;2.55;;;5.60;1.00;;;;;;4921667;29;20249;-84
2023/03/27 07:37:05;;;;;;;6.47;2.53;;;5.60;1.00;;;;;;4927210;28;20231;-85
2023/03/27 07:39:34;;;;;;;9.68;3.55;;;5.70;1.00;;;;;;4926178;28;20244;-86
2023/03/27 07:44:42;;;;;;;4.30;2.33;;;6.00;1.00;;;;;;4923481;29;20246;-84
2023/03/27 07:47:16;;;;;;;4.70;2.15;;;6.10;1.00;;;;;;4924482;29;20238;-83
2023/03/27 07:49:45;;;;;;;7.20;2.40;;;6.40;1.00;;;;;;4921581;28;20238;-83
2023/03/27 07:52:19;;;;;;;3.70;1.80;;;6.50;1.00;;;;;;4921190;28;21114;-85
2023/03/27 07:54:50;;;;;;;5.88;4.70;;;6.60;1.00;;;;;;4930120;28;20238;-87
2023/03/27 07:57:17;;;;;;;9.75;2.58;;;6.70;1.00;;;;;;4931947;28;20224;-86
2023/03/27 07:59:46;;;;;;;3.63;2.10;;;6.70;1.00;;;;;;4919005;29;20608;-82
2023/03/27 08:02:14;;;;;;;3.53;1.60;;;6.50;1.00;;;;;;4918057;28;20329;-80
2023/03/27 08:04:42;;;;;;;2.75;1.30;;;6.60;1.00;;;;;;4917053;29;20292;-82
2023/03/27 08:07:10;;;;;;;2.90;1.50;;;6.80;1.00;;;;;;4925232;29;20272;-82
2023/03/27 08:09:38;;;;;;;3.88;1.70;;;6.80;1.00;;;;;;4921902;29;20235;-83
2023/03/27 08:12:06;;;;;;;3.22;1.27;;;6.70;1.00;;;;;;4922351;29;20254;-82
2023/03/27 08:14:33;;;;;;;3.75;1.77;;;6.70;1.00;;;;;;4924319;29;20292;-83
2023/03/27 08:17:02;;;;;;;6.93;2.40;;;6.70;1.00;;;;;;4920339;29;20242;-82
2023/03/27 08:19:32;;;;;;;3.55;1.85;;;6.80;1.00;;;;;;4923152;29;20236;-84
2023/03/27 08:22:00;;;;;;;4.00;1.65;;;6.80;1.00;;;;;;4923102;29;20244;-82
2023/03/27 08:24:49;;;;;;;3.30;1.75;;;6.70;1.00;;;;;;4925351;28;20238;-87
2023/03/27 08:27:18;;;;;;;4.30;2.20;;;6.60;1.00;;;;;;4929968;28;20221;-85
2023/03/27 08:29:48;;;;;;;5.18;2.20;;;6.50;1.00;;;;;;4915881;28;20231;-83
2023/03/27 08:32:19;;;;;;;12.27;3.50;;;6.50;1.00;;;;;;4922290;28;20293;-83
2023/03/27 08:34:49;;;;;;;4.80;1.90;;;6.60;1.00;;;;;;4922702;28;20311;-85
2023/03/27 08:37:17;;;;;;;3.13;1.50;;;6.70;1.00;;;;;;4921325;28;20275;-84
2023/03/27 08:39:45;;;;;;;3.70;1.98;;;6.90;1.00;;;;;;4918098;28;20327;-84
2023/03/27 08:42:18;;;;;;;3.10;1.90;;;7.10;1.00;;;;;;4920488;29;20245;-88
2023/03/27 08:44:51;;;;;;;7.97;2.43;;;7.60;1.00;;;;;;4925162;29;20922;-87
2023/03/27 08:47:25;;;;;;;3.83;1.67;;;7.80;1.00;;;;;;4933553;28;20472;-88
2023/03/27 08:50:10;;;;;;;4.10;1.73;;;8.20;1.00;;;;;;4926659;28;21150;-89
2023/03/27 08:52:39;;;;;;;3.10;1.88;;;8.20;1.00;;;;;;4926674;28;20429;-85
2023/03/27 08:55:19;;;;;;;2.58;1.50;;;7.90;1.00;;;;;;4928174;29;20235;-85
2023/03/27 08:57:57;;;;;;;4.97;1.97;;;7.80;1.00;;;;;;4925855;28;20254;-84
2023/03/27 09:00:34;;;;;;;3.40;1.90;;;8.00;1.00;;;;;;4933492;28;20438;-85
2023/03/27 09:03:13;;;;;;;3.57;1.90;;;8.10;1.00;;;;;;4924168;29;20603;-85
2023/03/27 09:05:49;;;;;;;2.83;1.57;;;8.30;1.00;;;;;;4926596;29;20455;-84
2023/03/27 09:08:25;;;;;;;4.37;1.63;;;8.10;1.00;;;;;;4917805;28;20419;-81
2023/03/27 09:11:00;;;;;;;5.07;2.13;;;7.60;1.00;;;;;;4919904;28;20497;-83
2023/03/27 09:13:40;;;;;;;3.50;1.70;;;7.20;1.00;;;;;;4914422;28;20244;-82
2023/03/27 09:16:27;;;;;;;4.55;2.42;;;7.20;1.00;;;;;;4922108;28;20237;-87
2023/03/27 09:19:00;;;;;;;2.50;1.30;;;7.50;1.00;;;;;;4917504;28;21943;-86
2023/03/27 09:21:38;;;;;;;3.77;1.93;;;7.70;1.00;;;;;;4916498;28;20456;-84
2023/03/27 09:24:13;;;;;;;4.47;1.80;;;7.90;1.00;;;;;;4914494;29;20591;-84
2023/03/27 09:26:41;;;;;;;4.33;1.60;;;7.90;1.00;;;;;;4910387;29;20241;-79
2023/03/27 09:29:17;;;;;;;3.07;1.83;;;7.70;1.00;;;;;;4911906;29;20446;-83
2023/03/27 09:31:46;;;;;;;9.65;1.90;;;7.30;1.00;;;;;;4914683;28;20453;-81
2023/03/27 09:34:18;;;;;;;6.70;1.97;;;7.70;1.00;;;;;;4919821;29;20268;-84
2023/03/27 09:36:56;;;;;;;3.67;1.60;;;9.80;1.00;;;;;;4916403;29;20471;-85
2023/03/27 09:39:31;;;;;;;4.63;2.77;;;10.40;1.00;;;;;;4912105;29;20431;-79
2023/03/27 09:42:03;;;;;;;3.53;1.77;;;9.50;1.00;;;;;;4911107;29;20461;-83
2023/03/27 09:44:35;;;;;;;3.30;1.95;;;8.70;1.00;;;;;;4920484;28;20467;-79
2023/03/27 09:47:09;;;;;;;4.07;1.80;;;8.30;1.00;;;;;;4913047;28;20277;-79
2023/03/27 09:49:38;;;;;;;5.47;2.23;;;7.80;1.00;;;;;;4908307;29;20250;-81
2023/03/27 09:52:10;;;;;;;3.00;1.77;;;9.10;1.00;;;;;;4912320;29;20435;-84
2023/03/27 09:54:51;;;;;;;4.30;3.50;;;11.60;1.00;;;;;;4912890;28;20430;-87
2023/03/27 09:57:19;;;;;;;3.13;1.30;;;14.60;1.00;;;;;;4924974;28;20891;-82
2023/03/27 10:00:00;;;;;;;3.97;2.30;;;16.50;1.00;;;;;;4904415;29;20480;-83
2023/03/27 10:02:29;;;;;;;5.27;2.17;;;15.70;1.00;;;;;;4913074;28;20480;-83
2023/03/27 10:05:02;;;;;;;2.70;1.90;;;14.40;1.00;;;;;;4905188;28;21028;-82
2023/03/27 10:07:32;;;;;;;2.50;1.60;;;13.70;1.00;;;;;;4916493;29;20486;-82
2023/03/27 10:10:14;;;;;;;2.60;1.37;;;12.00;1.00;;;;;;4920553;29;20474;-81
2023/03/27 10:12:54;;;;;;;2.80;1.60;;;11.30;1.00;;;;;;4929131;28;20454;-88
2023/03/27 10:15:42;;;;;;;3.83;1.57;;;13.00;1.00;;;;;;4925487;28;20432;-85
2023/03/27 10:18:25;;;;;;;4.17;1.70;;;15.20;1.00;;;;;;4918270;28;20471;-88
2023/03/27 10:20:57;;;;;;;3.13;1.30;;;16.00;1.00;;;;;;4922505;29;20542;-89
2023/03/27 10:23:52;;;;;;;2.70;1.83;;;15.40;1.00;;;;;;4916629;28;20467;-87
2023/03/27 10:26:27;;;;;;;3.87;1.50;;;14.30;1.00;;;;;;4923102;29;20544;-85
2023/03/27 10:29:28;;;;;;;3.50;1.63;;;15.40;1.00;;;;;;4902084;29;20499;-85
2023/03/27 10:31:57;;;;;;;3.40;1.63;;;16.70;1.00;;;;;;4905253;28;20427;-84
2023/03/27 10:34:43;;;;;;;2.50;1.80;;;15.60;1.00;;;;;;4921527;28;20480;-85
2023/03/27 10:37:32;;;;;;;4.20;1.77;;;13.50;1.00;;;;;;4918786;28;20447;-85
2023/03/27 10:40:08;;;;;;;2.80;1.57;;;10.90;1.00;;;;;;4894484;29;21248;-84
2023/03/27 10:42:40;;;;;;;4.33;1.83;;;10.40;1.00;;;;;;4920785;29;20461;-86
2023/03/27 10:45:32;;;;;;;4.37;1.30;;;11.70;1.00;;;;;;4908102;29;20554;-86
2023/03/27 10:48:07;;;;;;;3.53;1.93;;;13.90;1.00;;;;;;4920779;28;20985;-86
2023/03/27 10:50:41;;;;;;;4.00;1.70;;;16.10;1.00;;;;;;4919178;28;21319;-84
2023/03/27 10:53:18;;;;;;;4.80;2.13;;;15.70;1.00;;;;;;4923808;29;20504;-85
2023/03/27 10:56:00;;;;;;;5.00;1.77;;;14.40;1.00;;;;;;4900935;29;20570;-84
2023/03/27 10:58:33;;;;;;;4.13;2.00;;;12.70;1.00;;;;;;4896162;29;20463;-85
2023/03/27 11:01:12;;;;;;;5.17;2.10;;;11.30;1.00;;;;;;4919747;29;20471;-86
2023/03/27 11:03:50;;;;;;;3.13;1.10;;;10.80;1.00;;;;;;4918463;28;20462;-88
2023/03/27 11:06:19;;;;;;;4.00;1.73;;;10.20;1.00;;;;;;4918900;28;21318;-86
2023/03/27 11:08:54;;;;;;;4.10;1.90;;;10.00;1.00;;;;;;4914744;29;20994;-80
2023/03/27 11:11:30;;;;;;;2.37;1.43;;;9.90;1.00;;;;;;4925215;29;20485;-82
2023/03/27 11:14:02;;;;;;;2.37;1.40;;;10.50;1.00;;;;;;4924181;28;20485;-87
2023/03/27 11:16:35;;;;;;;3.27;1.80;;;12.60;1.00;;;;;;4924434;28;20547;-84
2023/03/27 11:19:17;;;;;;;1.90;1.10;;;15.50;1.00;;;;;;4918243;28;20455;-88
2023/03/27 11:21:48;;;;;;;2.60;1.73;;;17.50;1.00;;;;;;4927742;28;21234;-89
2023/03/27 11:24:23;;;;;;;2.40;1.50;;;18.40;1.00;;;;;;4932540;28;20459;-90
2023/03/27 11:27:04;;;;;;;3.00;1.57;;;19.60;1.00;;;;;;4926602;28;20437;-86
2023/03/27 11:29:40;;;;;;;2.73;1.60;;;21.40;1.00;;;;;;4932682;28;20451;-88
2023/03/27 11:32:28;;;;;;;1.70;1.50;;;22.90;1.00;;;;;;4909217;28;20435;-90
2023/03/27 11:35:07;;;;;;;2.10;1.30;;;23.40;1.00;;;;;;4930949;28;20566;-88
2023/03/27 11:37:41;;;;;;;2.40;1.43;;;23.80;1.00;;;;;;4914382;28;21065;-88
2023/03/27 11:40:16;;;;;;;2.20;1.40;;;22.70;1.00;;;;;;4922383;28;20550;-84
2023/03/27 11:42:46;;;;;;;3.60;1.13;;;21.50;1.00;;;;;;4925003;29;20466;-86
2023/03/27 11:45:36;;;;;;;1.10;0.83;;;21.40;1.00;;;;;;4928270;28;20473;-88
2023/03/27 11:48:20;;;;;;;2.40;1.07;;;21.30;1.00;;;;;;4907377;28;20584;-81
2023/03/27 11:50:53;;;;;;;2.50;1.10;;;20.10;1.00;;;;;;4914901;29;21409;-83
2023/03/27 11:53:49;;;;;;;2.20;1.20;;;17.40;1.00;;;;;;4919045;29;20471;-85
2023/03/27 11:56:33;;;;;;;3.07;1.50;;;15.30;1.00;;;;;;4921024;28;20480;-85
2023/03/27 12:05:33;;;;;;;1.93;1.30;;;13.90;1.00;;;;;;3078391;27;20467;-84
2023/03/27 12:56:25;;;;;;;2.00;1.23;;;21.10;1.00;;;;;;5742965;23;20452;-84
2023/03/27 12:58:54;;;;;;;1.83;1.17;;;20.70;1.00;;;;;;4948602;28;20455;-83
2023/03/27 13:01:43;;;;;;;2.93;1.40;;;18.50;1.00;;;;;;4960521;28;20459;-86
2023/03/27 13:04:31;;;;;;;3.90;1.87;;;16.40;1.00;;;;;;4954713;28;20579;-84
2023/03/27 13:07:06;;;;;;;6.10;2.20;;;15.10;1.00;;;;;;4952560;28;20469;-83
2023/03/27 13:09:47;;;;;;;1.90;1.10;;;14.10;1.00;;;;;;4956960;28;20624;-85
2023/03/27 13:12:33;;;;;;;4.57;1.83;;;13.10;1.00;;;;;;4958755;28;20459;-84
2023/03/27 13:15:32;;;;;;;4.10;1.60;;;11.90;1.00;;;;;;4955776;28;20425;-81
2023/03/27 13:18:35;;;;;;;1.87;1.30;;;11.10;1.00;;;;;;4955922;28;20473;-83
2023/03/27 13:21:17;;;;;;;2.93;1.67;;;10.50;1.00;;;;;;4898029;29;20459;-83
2023/03/27 13:24:14;;;;;;;7.90;2.57;;;10.40;1.00;;;;;;4951870;28;20464;-80
2023/03/27 13:26:54;;;;;;;6.33;2.10;;;10.40;1.00;;;;;;4951290;28;20457;-82
2023/03/27 13:29:26;;;;;;;3.60;2.10;;;10.40;1.00;;;;;;4946956;28;20513;-87
2023/03/27 13:32:02;;;;;;;4.10;1.87;;;12.60;1.00;;;;;;4967753;28;20500;-87
2023/03/27 13:34:37;;;;;;;2.70;1.40;;;15.60;1.00;;;;;;4961667;28;20467;-88
2023/03/27 13:37:46;;;;;;;2.93;2.00;;;17.10;1.00;;;;;;4966898;28;20448;-87
2023/03/27 13:40:23;;;;;;;4.80;1.63;;;16.50;1.00;;;;;;4963249;28;20488;-86
2023/03/27 13:42:56;;;;;;;3.17;1.60;;;15.30;1.00;;;;;;4949731;28;20494;-86
2023/03/27 13:45:47;;;;;;;2.87;1.53;;;14.20;1.00;;;;;;4963488;28;20455;-87
2023/03/27 13:48:49;;;;;;;2.80;1.73;;;13.00;1.00;;;;;;4953108;28;20440;-90
2023/03/27 13:51:43;;;;;;;2.57;2.00;;;12.00;1.00;;;;;;4940440;28;20512;-88
2023/03/27 13:54:50;;;;;;;4.23;2.43;;;11.60;1.00;;;;;;4960641;28;20437;-84
2023/03/27 13:58:01;;;;;;;5.07;1.90;;;11.30;1.00;;;;;;4918081;28;20459;-85
2023/03/27 14:00:53;;;;;;;6.93;2.00;;;10.70;1.00;;;;;;4932587;28;20533;-87
2023/03/27 14:03:51;;;;;;;3.50;1.90;;;10.40;1.00;;;;;;4941078;28;21293;-83
2023/03/27 14:06:52;;;;;;;2.57;1.80;;;10.00;1.00;;;;;;4950059;28;20547;-82
2023/03/27 14:09:41;;;;;;;5.13;1.90;;;9.40;1.00;;;;;;4954702;28;20409;-89
2023/03/27 14:18:44;;;;;;;3.08;1.60;;;8.50;1.00;;;;;;5431717;23;20472;-82
2023/03/27 14:21:22;;;;;;;3.22;1.70;;;8.20;1.00;;;;;;4936202;28;20248;-88
2023/03/27 14:23:53;;;;;;;2.80;1.70;;;8.10;1.00;;;;;;4944982;28;20221;-83
2023/03/27 14:26:24;;;;;;;3.87;1.80;;;8.10;1.00;;;;;;4950100;28;20562;-86
2023/03/27 14:28:56;;;;;;;3.00;2.17;;;8.10;1.00;;;;;;4941503;28;20503;-87
2023/03/27 14:31:34;;;;;;;3.80;2.13;;;7.90;1.00;;;;;;4948985;28;20464;-86
2023/03/27 14:34:06;;;;;;;2.83;1.70;;;7.80;1.00;;;;;;4920267;28;20475;-82
2023/03/27 14:36:41;;;;;;;2.50;1.60;;;7.80;1.00;;;;;;4929234;28;20505;-85
2023/03/27 14:39:21;;;;;;;2.37;1.80;;;8.00;1.00;;;;;;4939126;28;20449;-83
2023/03/27 14:41:52;;;;;;;3.10;1.73;;;8.10;1.00;;;;;;4934297;28;20449;-81
2023/03/27 14:44:20;;;;;;;2.90;1.60;;;8.10;1.00;;;;;;4949496;28;20502;-84
2023/03/27 14:46:51;;;;;;;3.80;2.17;;;8.00;1.00;;;;;;4923569;28;20489;-83
2023/03/27 14:49:28;;;;;;;2.53;1.33;;;8.00;1.00;;;;;;4945110;28;20437;-82
2023/03/27 14:52:02;;;;;;;4.80;2.10;;;8.10;1.00;;;;;;4946765;28;20995;-81
2023/03/27 14:54:30;;;;;;;3.37;2.20;;;8.10;1.00;;;;;;4951683;28;20474;-82
2023/03/27 14:57:02;;;;;;;2.43;1.43;;;8.00;1.00;;;;;;4948888;28;20516;-82
2023/03/27 14:59:33;;;;;;;2.80;1.47;;;8.10;1.00;;;;;;4942738;28;21186;-85
2023/03/27 15:02:03;;;;;;;3.80;1.50;;;8.00;1.00;;;;;;4946242;28;21352;-83
2023/03/27 15:04:34;;;;;;;4.33;2.70;;;8.00;1.00;;;;;;4946452;28;21186;-83
2023/03/27 15:07:14;;;;;;;2.70;1.23;;;8.10;1.00;;;;;;4934518;28;21225;-83
2023/03/27 15:09:44;;;;;;;3.07;1.60;;;8.10;1.00;;;;;;4949326;28;20993;-83
2023/03/27 15:12:12;;;;;;;6.03;2.00;;;8.20;1.00;;;;;;4942777;28;20438;-83
2023/03/27 15:14:44;;;;;;;3.70;2.40;;;8.20;1.00;;;;;;4942278;28;20454;-82
2023/03/27 15:17:16;;;;;;;3.80;1.50;;;8.20;1.00;;;;;;4935362;28;20469;-84
2023/03/27 15:19:49;;;;;;;2.83;1.70;;;8.30;1.00;;;;;;4941809;28;20563;-83
2023/03/27 15:22:23;;;;;;;3.83;2.07;;;8.30;1.00;;;;;;4936556;28;20985;-84
2023/03/27 15:24:56;;;;;;;3.93;1.83;;;8.40;1.00;;;;;;4941524;28;20422;-83
2023/03/27 15:27:28;;;;;;;2.87;1.77;;;8.50;1.00;;;;;;4943065;28;20901;-85
2023/03/27 15:30:15;;;;;;;3.30;1.90;;;8.60;1.00;;;;;;4948412;28;20951;-84
2023/03/27 15:32:51;;;;;;;5.07;1.77;;;8.60;1.00;;;;;;4943012;28;20433;-83
2023/03/27 15:35:28;;;;;;;4.80;2.50;;;8.60;1.00;;;;;;4944652;28;20517;-82
2023/03/27 15:37:55;;;;;;;3.40;1.90;;;8.70;1.00;;;;;;4947887;28;20434;-84
2023/03/27 15:40:41;;;;;;;3.57;2.00;;;8.60;1.00;;;;;;4949063;28;20483;-83
2023/03/27 15:43:21;;;;;;;2.37;1.63;;;8.50;1.00;;;;;;4922532;28;20476;-83
2023/03/27 15:46:02;;;;;;;4.33;1.70;;;8.40;1.00;;;;;;4948201;28;20463;-83
2023/03/27 15:48:39;;;;;;;2.57;1.30;;;8.30;1.00;;;;;;4945549;28;20488;-84
2023/03/27 15:51:20;;;;;;;5.63;3.07;;;8.20;1.00;;;;;;4948106;28;20456;-84
2023/03/27 15:53:48;;;;;;;3.50;1.87;;;8.20;1.00;;;;;;4929884;28;20452;-82
2023/03/27 15:56:21;;;;;;;3.20;1.70;;;8.30;1.00;;;;;;4945245;28;21308;-84
2023/03/27 15:58:52;;;;;;;3.63;1.53;;;8.30;1.00;;;;;;4940300;28;20465;-85
2023/03/27 16:01:22;;;;;;;2.53;1.40;;;8.30;1.00;;;;;;4939668;28;20465;-85
2023/03/27 16:03:51;;;;;;;4.20;2.10;;;8.20;1.00;;;;;;4941674;28;20438;-85
2023/03/27 16:06:31;;;;;;;3.70;1.93;;;8.10;1.00;;;;;;4945378;28;20492;-86
2023/03/27 16:09:00;;;;;;;3.33;1.93;;;8.00;1.00;;;;;;4943032;28;20567;-84
2023/03/27 16:11:52;;;;;;;2.53;1.53;;;7.90;1.00;;;;;;4946610;28;20472;-84
2023/03/27 16:14:26;;;;;;;2.23;1.33;;;7.80;1.00;;;;;;4944664;28;20562;-86
2023/03/27 16:17:10;;;;;;;5.50;2.87;;;7.80;1.00;;;;;;4946891;28;20450;-83
2023/03/27 16:19:48;;;;;;;3.33;2.07;;;7.60;1.00;;;;;;4949943;28;20459;-85
2023/03/27 16:22:31;;;;;;;4.63;1.95;;;7.50;1.00;;;;;;4944808;28;20460;-85
2023/03/27 16:24:59;;;;;;;3.67;1.90;;;7.50;1.00;;;;;;4923087;28;20237;-83
2023/03/27 16:27:36;;;;;;;4.10;2.23;;;7.40;1.00;;;;;;4938278;28;20234;-82
2023/03/27 16:30:05;;;;;;;5.37;2.33;;;7.30;1.00;;;;;;4938428;28;20442;-83
2023/03/27 16:32:33;;;;;;;3.90;2.60;;;7.30;1.00;;;;;;4942209;28;20471;-82
2023/03/27 16:35:06;;;;;;;5.38;1.67;;;7.00;1.00;;;;;;4940650;28;20239;-82
2023/03/27 16:37:38;;;;;;;3.65;1.40;;;6.60;1.00;;;;;;4940318;28;20325;-83
2023/03/27 16:40:10;;;;;;;3.60;1.33;;;6.00;1.00;;;;;;4942356;28;20276;-86
2023/03/27 16:42:37;;;;;;;4.70;1.60;;;5.60;1.00;;;;;;4928589;28;20242;-86
2023/03/27 16:45:06;;;;;;;2.38;1.02;;;5.50;1.00;;;;;;4937715;28;20250;-87